Time;durP1;ratioP1;P1;durP2;ratioP2;P2;SDS_P1;SDS_P2;PMS_P1;PMS_P2;Temp;Humidity;BMP_temperature;BMP_pressure;BME280_temperature;BME280_humidity;BME280_pressure;Samples;Min_cycle;Max_cycle;Signal;HPM_P1;HPM_P2
2023/07/18 00:01:16;;;;;;;7.35;4.00;;;16.70;99.90;;;;;;4979863;28;20035;-80
2023/07/18 00:03:41;;;;;;;12.57;4.70;;;16.70;99.90;;;;;;4965967;28;20071;-79
2023/07/18 00:06:08;;;;;;;11.32;4.50;;;16.70;99.90;;;;;;4963828;28;20129;-80
2023/07/18 00:08:33;;;;;;;6.70;3.95;;;16.60;99.90;;;;;;4966155;28;20022;-79
2023/07/18 00:11:01;;;;;;;9.05;4.22;;;16.60;99.90;;;;;;4966992;28;20514;-79
2023/07/18 00:13:27;;;;;;;10.43;4.75;;;16.70;99.90;;;;;;4970328;28;20026;-80
2023/07/18 00:15:53;;;;;;;7.00;4.45;;;16.60;99.90;;;;;;4960087;28;20038;-79
2023/07/18 00:18:21;;;;;;;12.70;4.35;;;16.40;99.90;;;;;;4967655;28;20031;-79
2023/07/18 00:20:47;;;;;;;6.97;4.22;;;16.40;99.90;;;;;;4964420;28;20054;-80
2023/07/18 00:23:12;;;;;;;12.50;5.70;;;16.40;99.90;;;;;;4967875;28;20539;-80
2023/07/18 00:25:38;;;;;;;11.50;4.07;;;16.20;99.90;;;;;;4960857;28;20550;-80
2023/07/18 00:28:04;;;;;;;8.88;4.70;;;16.30;99.90;;;;;;4967861;28;20027;-80
2023/07/18 00:30:30;;;;;;;8.63;4.55;;;16.40;99.90;;;;;;4968654;28;20027;-79
2023/07/18 00:32:56;;;;;;;7.75;4.43;;;16.40;99.90;;;;;;4969044;28;20521;-79
2023/07/18 00:35:22;;;;;;;12.00;4.38;;;16.50;99.90;;;;;;4968112;28;20482;-82
2023/07/18 00:37:52;;;;;;;9.73;4.80;;;16.50;99.90;;;;;;4967019;28;20110;-80
2023/07/18 00:40:17;;;;;;;7.00;4.57;;;16.50;99.90;;;;;;4966578;28;20039;-82
2023/07/18 00:42:45;;;;;;;7.70;4.65;;;16.30;99.90;;;;;;4969898;28;20023;-81
2023/07/18 00:45:11;;;;;;;9.35;4.50;;;16.20;99.90;;;;;;4968780;28;20022;-80
2023/07/18 00:47:42;;;;;;;8.02;5.03;;;16.00;99.90;;;;;;4968527;28;20713;-81
2023/07/18 00:50:14;;;;;;;10.25;4.47;;;16.00;99.90;;;;;;4967034;28;20483;-79
2023/07/18 00:52:43;;;;;;;12.18;5.07;;;16.00;99.90;;;;;;4956862;28;20023;-82
2023/07/18 00:55:11;;;;;;;14.90;5.07;;;16.00;99.90;;;;;;4963655;28;20031;-81
2023/07/18 00:57:39;;;;;;;8.50;4.75;;;16.10;99.90;;;;;;4966413;28;20483;-81
2023/07/18 01:00:10;;;;;;;9.20;4.45;;;16.20;99.90;;;;;;4968724;28;20542;-82
2023/07/18 01:02:38;;;;;;;8.90;4.50;;;16.20;99.90;;;;;;4964829;28;20026;-81
2023/07/18 01:05:04;;;;;;;8.75;4.38;;;16.20;99.90;;;;;;4966393;28;20078;-82
2023/07/18 01:07:30;;;;;;;8.60;4.90;;;16.20;99.90;;;;;;4967730;28;20027;-82
2023/07/18 01:10:23;;;;;;;11.35;4.70;;;16.20;99.90;;;;;;4960537;28;20026;-81
2023/07/18 01:12:55;;;;;;;8.88;4.82;;;16.10;99.90;;;;;;4982291;28;20026;-82
2023/07/18 01:15:21;;;;;;;8.63;5.07;;;16.10;99.90;;;;;;4967689;28;20479;-82
2023/07/18 01:17:48;;;;;;;13.80;4.95;;;16.10;99.90;;;;;;4969579;28;20161;-81
2023/07/18 01:20:27;;;;;;;11.00;4.80;;;16.10;99.90;;;;;;4967456;28;20041;-81
2023/07/18 01:22:58;;;;;;;8.30;4.65;;;16.10;99.90;;;;;;4966343;28;20027;-81
2023/07/18 01:25:23;;;;;;;9.70;4.45;;;16.00;99.90;;;;;;4967159;28;20057;-81
2023/07/18 01:27:51;;;;;;;12.02;5.05;;;15.90;99.90;;;;;;4968020;28;20054;-82
2023/07/18 01:30:27;;;;;;;10.77;4.63;;;15.90;99.90;;;;;;4957815;28;20522;-82
2023/07/18 01:32:56;;;;;;;9.48;4.60;;;15.80;99.90;;;;;;4965938;28;20483;-81
2023/07/18 01:35:25;;;;;;;5.82;4.13;;;15.90;99.90;;;;;;4969000;28;20037;-82
2023/07/18 01:37:55;;;;;;;9.10;4.85;;;16.00;99.90;;;;;;4965666;28;20066;-81
2023/07/18 01:40:21;;;;;;;10.05;4.38;;;16.00;99.90;;;;;;4969427;28;20023;-80
2023/07/18 01:42:52;;;;;;;7.53;4.53;;;16.00;99.90;;;;;;4975485;28;20031;-81
2023/07/18 01:45:27;;;;;;;11.00;4.68;;;15.90;99.90;;;;;;4991132;28;20050;-82
2023/07/18 01:47:55;;;;;;;9.40;4.32;;;15.90;99.90;;;;;;4987045;28;20042;-81
2023/07/18 01:50:20;;;;;;;6.68;4.43;;;15.90;99.90;;;;;;4963690;28;20024;-82
2023/07/18 01:52:47;;;;;;;12.90;5.00;;;16.00;99.90;;;;;;4968357;28;20058;-81
2023/07/18 01:55:12;;;;;;;7.85;4.70;;;15.90;99.90;;;;;;4967156;28;20061;-82
2023/07/18 01:57:38;;;;;;;10.60;5.07;;;15.90;99.90;;;;;;4967149;28;20048;-81
2023/07/18 02:00:10;;;;;;;8.73;4.93;;;15.80;99.90;;;;;;4957954;28;20458;-81
2023/07/18 02:02:36;;;;;;;7.80;4.60;;;15.90;99.90;;;;;;4965647;28;20019;-82
2023/07/18 02:05:06;;;;;;;9.30;4.63;;;15.90;99.90;;;;;;4964043;28;20124;-81
2023/07/18 02:07:35;;;;;;;13.07;4.38;;;15.80;99.90;;;;;;4966794;28;20471;-81
2023/07/18 02:10:01;;;;;;;15.15;5.40;;;15.80;99.90;;;;;;4965456;28;20061;-81
2023/07/18 02:12:27;;;;;;;16.67;5.60;;;15.70;99.90;;;;;;4966756;28;20027;-81
2023/07/18 02:14:53;;;;;;;13.13;5.28;;;15.70;99.90;;;;;;4967971;28;20457;-82
2023/07/18 02:17:19;;;;;;;11.80;5.65;;;15.80;99.90;;;;;;4965110;28;20033;-82
2023/07/18 02:19:44;;;;;;;11.90;5.28;;;15.90;99.90;;;;;;4966422;28;20034;-81
2023/07/18 02:22:10;;;;;;;9.15;5.43;;;15.90;99.90;;;;;;4966303;28;20029;-81
2023/07/18 02:24:36;;;;;;;13.27;5.32;;;15.90;99.90;;;;;;4982307;28;20117;-81
2023/07/18 02:27:02;;;;;;;15.05;5.15;;;15.90;99.90;;;;;;4965994;28;20030;-82
2023/07/18 02:29:29;;;;;;;13.82;6.03;;;16.00;99.90;;;;;;4965985;28;20059;-81
2023/07/18 02:31:54;;;;;;;10.68;5.20;;;16.00;99.90;;;;;;4963595;28;20817;-81
2023/07/18 02:34:20;;;;;;;15.10;5.35;;;16.00;99.90;;;;;;4967920;28;20035;-81
2023/07/18 02:36:50;;;;;;;15.55;5.22;;;16.00;99.90;;;;;;4968075;28;20035;-81
2023/07/18 02:39:16;;;;;;;9.13;4.85;;;16.10;99.90;;;;;;4965538;28;20038;-81
2023/07/18 02:41:41;;;;;;;18.98;5.32;;;16.10;99.90;;;;;;4964801;28;20027;-82
2023/07/18 02:44:07;;;;;;;15.82;5.32;;;16.10;99.90;;;;;;4965139;28;20039;-79
2023/07/18 02:46:33;;;;;;;14.98;5.30;;;16.10;99.90;;;;;;4962351;28;20447;-79
2023/07/18 02:48:58;;;;;;;15.15;4.85;;;16.10;99.90;;;;;;4966361;28;20107;-79
2023/07/18 02:51:24;;;;;;;12.88;4.82;;;16.10;99.90;;;;;;4964093;28;20031;-79
2023/07/18 02:53:52;;;;;;;13.25;4.82;;;16.10;99.90;;;;;;4959764;28;20023;-79
2023/07/18 02:56:17;;;;;;;10.93;4.95;;;16.10;99.90;;;;;;4962861;28;20125;-79
2023/07/18 02:58:43;;;;;;;19.25;4.85;;;16.00;99.90;;;;;;4968283;28;20098;-81
2023/07/18 03:01:09;;;;;;;8.48;4.85;;;16.10;99.90;;;;;;4965207;28;20023;-80
2023/07/18 03:03:40;;;;;;;11.32;5.18;;;16.10;99.90;;;;;;4957875;28;20401;-81
2023/07/18 03:06:10;;;;;;;11.43;5.00;;;16.10;99.90;;;;;;4966312;28;20515;-79
2023/07/18 03:08:36;;;;;;;13.23;5.15;;;16.10;99.90;;;;;;4960894;28;20031;-80
2023/07/18 03:11:05;;;;;;;8.05;5.13;;;16.10;99.90;;;;;;4965508;28;20624;-79
2023/07/18 03:13:31;;;;;;;10.75;4.75;;;16.10;99.90;;;;;;4966763;28;20561;-79
2023/07/18 03:15:57;;;;;;;13.35;4.68;;;16.10;99.90;;;;;;4963337;28;20026;-80
2023/07/18 03:18:22;;;;;;;9.57;5.10;;;16.10;99.90;;;;;;4966103;28;20111;-80
2023/07/18 03:20:48;;;;;;;9.48;5.00;;;16.00;99.90;;;;;;4964212;28;20031;-79
2023/07/18 03:23:14;;;;;;;8.85;5.35;;;16.00;99.90;;;;;;4965394;28;20038;-82
2023/07/18 03:25:40;;;;;;;7.68;4.88;;;16.00;99.90;;;;;;4966829;28;20109;-81
2023/07/18 03:28:06;;;;;;;13.13;5.22;;;16.00;99.90;;;;;;4963129;28;20051;-81
2023/07/18 03:30:32;;;;;;;11.27;5.10;;;15.90;99.90;;;;;;4964647;28;20031;-82
2023/07/18 03:32:57;;;;;;;13.30;4.97;;;15.80;99.90;;;;;;4965388;28;20027;-79
2023/07/18 03:35:23;;;;;;;12.52;5.40;;;15.80;99.90;;;;;;4965152;28;20035;-79
2023/07/18 03:37:49;;;;;;;11.35;5.55;;;15.80;99.90;;;;;;4964381;28;20495;-79
2023/07/18 03:40:17;;;;;;;9.85;5.60;;;15.80;99.90;;;;;;4965869;28;20035;-79
2023/07/18 03:42:46;;;;;;;13.15;5.38;;;15.80;99.90;;;;;;4964934;28;20094;-79
2023/07/18 03:45:15;;;;;;;13.43;5.72;;;15.80;99.90;;;;;;4968914;28;20368;-80
2023/07/18 03:47:41;;;;;;;11.73;5.57;;;15.80;99.90;;;;;;4970774;28;20023;-79
2023/07/18 03:50:10;;;;;;;15.30;5.80;;;15.80;99.90;;;;;;4966377;28;20019;-79
2023/07/18 03:52:36;;;;;;;13.85;5.43;;;15.80;99.90;;;;;;4969503;28;20558;-80
2023/07/18 03:55:03;;;;;;;13.15;6.22;;;15.80;99.90;;;;;;4965204;28;20026;-79
2023/07/18 03:57:30;;;;;;;11.00;5.57;;;15.80;99.90;;;;;;4969238;28;20059;-81
2023/07/18 03:59:58;;;;;;;15.05;5.60;;;15.70;99.90;;;;;;4969127;28;20055;-81
2023/07/18 04:02:23;;;;;;;11.50;5.80;;;15.60;99.90;;;;;;4965807;28;20176;-79
2023/07/18 04:04:49;;;;;;;12.07;5.90;;;15.70;99.90;;;;;;4965187;28;20187;-79
2023/07/18 04:07:20;;;;;;;13.23;5.70;;;15.70;99.90;;;;;;4971262;28;20022;-79
2023/07/18 04:09:45;;;;;;;9.18;5.30;;;15.70;99.90;;;;;;4993413;28;20090;-80
2023/07/18 04:12:13;;;;;;;11.00;5.38;;;15.80;99.90;;;;;;4981903;28;20030;-79
2023/07/18 04:14:41;;;;;;;11.70;5.40;;;15.80;99.90;;;;;;4968079;28;20010;-81
2023/07/18 04:17:07;;;;;;;10.60;5.57;;;15.80;99.90;;;;;;4966248;28;20547;-81
2023/07/18 04:19:32;;;;;;;18.23;5.70;;;15.80;99.90;;;;;;4963043;28;20014;-81
2023/07/18 04:21:58;;;;;;;11.20;5.10;;;15.80;99.90;;;;;;4967544;28;20448;-81
2023/07/18 04:24:24;;;;;;;9.48;5.57;;;15.80;99.90;;;;;;4967232;28;20035;-82
2023/07/18 04:26:51;;;;;;;9.30;5.05;;;15.90;99.90;;;;;;4965049;28;20023;-81
2023/07/18 04:29:18;;;;;;;13.73;5.13;;;15.90;99.90;;;;;;4975017;28;20026;-81
2023/07/18 04:31:44;;;;;;;11.50;5.13;;;15.90;99.90;;;;;;4966728;28;20035;-81
2023/07/18 04:34:10;;;;;;;11.30;5.03;;;15.90;99.90;;;;;;4964320;28;20033;-82
2023/07/18 04:36:38;;;;;;;8.77;4.88;;;15.90;99.90;;;;;;4966470;28;20447;-81
2023/07/18 04:39:03;;;;;;;6.70;5.00;;;15.90;99.90;;;;;;4965495;28;20065;-81
2023/07/18 04:41:29;;;;;;;13.27;4.45;;;15.90;99.90;;;;;;4968858;28;20015;-81
2023/07/18 04:43:55;;;;;;;8.75;5.25;;;16.00;99.90;;;;;;4966499;28;20042;-82
2023/07/18 04:46:20;;;;;;;12.95;4.90;;;16.00;99.90;;;;;;4967118;28;20099;-81
2023/07/18 04:48:46;;;;;;;9.48;5.15;;;16.00;99.90;;;;;;4965653;28;20077;-81
2023/07/18 04:51:11;;;;;;;14.30;4.93;;;15.90;99.90;;;;;;4966276;28;20158;-81
2023/07/18 04:53:37;;;;;;;14.75;5.07;;;16.00;99.90;;;;;;4965540;28;20023;-82
2023/07/18 04:56:06;;;;;;;12.38;5.70;;;16.00;99.90;;;;;;4967570;28;20708;-82
2023/07/18 04:58:32;;;;;;;9.15;5.45;;;15.80;99.90;;;;;;4961055;28;20022;-81
2023/07/18 05:00:59;;;;;;;13.40;5.78;;;15.80;99.90;;;;;;4965925;28;20023;-81
2023/07/18 05:03:26;;;;;;;17.05;5.70;;;15.80;99.90;;;;;;4964505;28;20247;-82
2023/07/18 05:05:52;;;;;;;16.70;5.63;;;15.70;99.90;;;;;;4965123;28;20038;-82
2023/07/18 05:08:18;;;;;;;11.43;5.00;;;15.70;99.90;;;;;;4964417;28;20400;-81
2023/07/18 05:10:44;;;;;;;16.90;6.18;;;15.70;99.90;;;;;;4966297;28;20104;-82
2023/07/18 05:13:10;;;;;;;10.55;5.45;;;15.60;99.90;;;;;;4965630;28;20026;-81
2023/07/18 05:15:43;;;;;;;13.57;5.75;;;15.60;99.90;;;;;;4968038;28;20041;-81
2023/07/18 05:18:11;;;;;;;11.38;5.38;;;15.60;99.90;;;;;;4963341;28;20023;-81
2023/07/18 05:20:37;;;;;;;17.75;8.25;;;15.70;99.90;;;;;;4966150;28;20446;-81
2023/07/18 05:23:03;;;;;;;13.10;5.57;;;15.70;99.90;;;;;;4965667;28;20031;-81
2023/07/18 05:25:29;;;;;;;18.38;6.28;;;15.80;99.90;;;;;;4965767;28;20041;-81
2023/07/18 05:27:56;;;;;;;12.27;5.70;;;15.80;99.90;;;;;;4963022;28;20023;-81
2023/07/18 05:30:21;;;;;;;12.05;5.38;;;15.90;99.90;;;;;;4980718;28;20113;-81
2023/07/18 05:32:52;;;;;;;11.35;5.28;;;16.00;99.90;;;;;;4965531;28;20488;-81
2023/07/18 05:35:18;;;;;;;11.13;5.65;;;16.00;99.90;;;;;;4967101;28;20029;-81
2023/07/18 05:37:44;;;;;;;13.93;5.95;;;16.00;99.90;;;;;;4956767;28;20027;-81
2023/07/18 05:40:11;;;;;;;17.13;5.40;;;16.10;99.90;;;;;;4966618;28;20197;-81
2023/07/18 05:42:37;;;;;;;9.45;5.25;;;16.20;99.90;;;;;;4965410;28;20106;-81
2023/07/18 05:45:05;;;;;;;9.55;4.63;;;16.30;99.90;;;;;;4964550;28;20031;-81
2023/07/18 05:47:30;;;;;;;11.45;5.10;;;16.40;99.90;;;;;;4980252;28;20023;-81
2023/07/18 05:49:56;;;;;;;8.10;5.05;;;16.50;99.90;;;;;;4965389;28;20720;-81
2023/07/18 05:52:24;;;;;;;12.85;5.10;;;16.60;99.90;;;;;;4967373;28;20094;-81
2023/07/18 05:54:49;;;;;;;14.60;4.88;;;16.70;99.90;;;;;;4956821;28;20025;-81
2023/07/18 05:57:17;;;;;;;12.13;4.65;;;16.80;99.90;;;;;;4966123;28;20023;-82
2023/07/18 05:59:43;;;;;;;6.45;4.47;;;16.90;99.90;;;;;;4967216;28;20031;-81
2023/07/18 06:02:11;;;;;;;13.93;5.43;;;16.90;99.90;;;;;;4964642;28;20026;-81
2023/07/18 06:04:39;;;;;;;12.63;4.60;;;16.70;99.90;;;;;;4967389;28;20117;-82
2023/07/18 06:07:06;;;;;;;10.77;4.18;;;16.70;99.90;;;;;;4958996;28;20030;-80
2023/07/18 06:09:31;;;;;;;10.95;4.90;;;16.80;99.90;;;;;;4963411;28;20019;-81
2023/07/18 06:11:57;;;;;;;9.98;4.18;;;16.80;99.90;;;;;;4958363;28;20019;-80
2023/07/18 06:14:23;;;;;;;9.27;4.63;;;16.80;99.90;;;;;;4964581;28;20026;-81
2023/07/18 06:16:49;;;;;;;10.55;4.57;;;16.90;99.90;;;;;;4964853;28;20074;-81
2023/07/18 06:19:17;;;;;;;14.13;4.13;;;17.10;99.60;;;;;;4965189;28;20026;-80
2023/07/18 06:21:42;;;;;;;9.93;4.90;;;17.10;98.80;;;;;;4967242;28;20058;-81
2023/07/18 06:24:08;;;;;;;12.48;4.40;;;17.00;99.20;;;;;;4965416;28;20097;-79
2023/07/18 06:26:34;;;;;;;7.40;3.97;;;17.20;99.50;;;;;;4967875;28;20105;-78
2023/07/18 06:29:02;;;;;;;9.57;4.03;;;17.20;99.20;;;;;;4960243;28;20042;-80
2023/07/18 06:31:28;;;;;;;9.98;3.90;;;17.10;98.70;;;;;;4975088;28;20031;-82
2023/07/18 06:33:54;;;;;;;4.70;3.45;;;17.20;98.80;;;;;;4960833;28;20491;-80
2023/07/18 06:36:20;;;;;;;11.30;4.22;;;17.30;98.90;;;;;;4965725;28;20479;-82
2023/07/18 06:38:49;;;;;;;10.23;3.83;;;17.40;98.70;;;;;;4965279;28;20031;-82
2023/07/18 06:41:18;;;;;;;7.70;3.88;;;17.50;98.90;;;;;;4978997;28;20110;-79
2023/07/18 06:43:43;;;;;;;10.25;3.80;;;17.70;98.50;;;;;;4964456;28;20526;-79
2023/07/18 06:46:09;;;;;;;7.78;4.03;;;17.80;97.90;;;;;;4964822;28;20030;-79
2023/07/18 06:48:35;;;;;;;5.90;3.55;;;17.90;98.10;;;;;;4966101;28;20054;-80
2023/07/18 06:51:06;;;;;;;7.22;3.38;;;17.90;97.40;;;;;;4963177;28;20054;-78
2023/07/18 06:53:33;;;;;;;5.03;3.13;;;18.00;97.30;;;;;;4963798;28;20101;-79
2023/07/18 06:55:58;;;;;;;6.68;3.20;;;18.00;97.10;;;;;;4965135;28;20022;-79
2023/07/18 06:58:24;;;;;;;6.85;2.80;;;18.00;97.10;;;;;;4963842;28;20471;-79
2023/07/18 07:00:50;;;;;;;8.43;3.17;;;18.10;96.40;;;;;;4966722;28;20023;-79
2023/07/18 07:03:18;;;;;;;6.10;2.85;;;18.10;97.00;;;;;;4965898;28;20776;-80
2023/07/18 07:05:44;;;;;;;6.90;3.90;;;18.10;96.60;;;;;;4966467;28;20031;-79
2023/07/18 07:08:13;;;;;;;13.50;3.67;;;18.20;96.80;;;;;;4965490;28;20059;-79
2023/07/18 07:10:42;;;;;;;5.47;2.92;;;18.30;96.20;;;;;;4956664;28;20073;-79
2023/07/18 07:13:09;;;;;;;7.45;3.22;;;18.30;97.00;;;;;;4963669;28;20051;-78
2023/07/18 07:15:35;;;;;;;9.88;3.17;;;18.50;96.40;;;;;;4965082;28;20448;-78
2023/07/18 07:18:05;;;;;;;5.60;3.28;;;18.60;95.50;;;;;;4964246;28;20117;-78
2023/07/18 07:20:31;;;;;;;6.55;2.97;;;18.60;95.60;;;;;;4963868;28;20486;-80
2023/07/18 07:22:57;;;;;;;6.43;2.42;;;18.70;95.60;;;;;;4966356;28;20035;-79
2023/07/18 07:25:27;;;;;;;7.40;2.58;;;18.70;94.80;;;;;;4966299;28;20092;-78
2023/07/18 07:27:53;;;;;;;5.00;3.40;;;18.70;94.50;;;;;;4965210;28;20838;-82
2023/07/18 07:30:19;;;;;;;7.07;2.65;;;18.70;95.20;;;;;;4962424;28;20538;-81
2023/07/18 07:32:47;;;;;;;6.03;2.30;;;18.90;95.30;;;;;;4965383;28;20019;-78
2023/07/18 07:35:19;;;;;;;5.05;2.53;;;18.90;93.80;;;;;;4961700;28;20037;-79
2023/07/18 07:37:45;;;;;;;7.07;2.50;;;19.10;94.10;;;;;;4976999;28;20031;-80
2023/07/18 07:40:11;;;;;;;5.15;2.30;;;19.00;93.60;;;;;;4961724;28;20023;-79
2023/07/18 07:42:44;;;;;;;136.85;62.50;;;19.10;94.60;;;;;;4964166;28;20042;-78
2023/07/18 07:45:10;;;;;;;8.80;2.75;;;19.10;93.60;;;;;;4960217;28;20031;-78
2023/07/18 07:47:38;;;;;;;5.05;2.10;;;19.10;94.20;;;;;;4964085;28;20027;-80
2023/07/18 07:50:05;;;;;;;7.15;2.28;;;19.10;93.40;;;;;;4953463;28;20065;-79
2023/07/18 07:52:31;;;;;;;6.13;2.30;;;19.00;93.70;;;;;;4961149;28;20082;-81
2023/07/18 07:55:00;;;;;;;6.53;2.55;;;19.20;93.80;;;;;;4963575;28;20023;-79
2023/07/18 07:57:25;;;;;;;5.15;1.85;;;19.20;93.30;;;;;;4977158;28;20023;-78
2023/07/18 07:59:53;;;;;;;10.18;2.08;;;19.30;93.90;;;;;;4962805;28;20031;-79
2023/07/18 08:02:19;;;;;;;7.07;1.58;;;19.50;93.00;;;;;;4956932;28;20035;-79
2023/07/18 08:04:46;;;;;;;2.45;1.70;;;19.70;92.20;;;;;;4963627;28;20089;-79
2023/07/18 08:07:12;;;;;;;5.78;1.73;;;19.80;91.80;;;;;;4963568;28;20027;-79
2023/07/18 08:09:38;;;;;;;5.97;1.60;;;19.90;91.60;;;;;;4961677;28;20479;-81
2023/07/18 08:12:05;;;;;;;4.75;2.03;;;19.90;90.90;;;;;;4961345;28;20077;-79
2023/07/18 08:14:34;;;;;;;7.38;1.90;;;19.90;90.80;;;;;;4961888;28;20027;-78
2023/07/18 08:17:01;;;;;;;5.35;1.25;;;19.90;90.30;;;;;;4963450;28;20512;-78
2023/07/18 08:19:27;;;;;;;3.97;1.50;;;20.20;89.40;;;;;;4961159;28;20019;-77
2023/07/18 08:21:53;;;;;;;2.50;1.08;;;20.30;90.10;;;;;;4961818;28;20029;-79
2023/07/18 08:24:19;;;;;;;3.38;1.10;;;20.50;88.60;;;;;;4962034;28;20042;-79
2023/07/18 08:26:47;;;;;;;3.88;1.10;;;20.50;86.90;;;;;;4963531;28;20027;-79
2023/07/18 08:29:12;;;;;;;6.97;1.75;;;20.50;86.60;;;;;;4959469;28;20027;-80
2023/07/18 08:31:38;;;;;;;4.72;1.17;;;20.60;87.10;;;;;;4960252;28;20038;-78
2023/07/18 08:34:06;;;;;;;3.03;1.20;;;20.50;86.40;;;;;;4969073;28;20026;-80
2023/07/18 08:36:35;;;;;;;3.00;1.55;;;20.50;86.20;;;;;;4967578;28;20019;-77
2023/07/18 08:39:01;;;;;;;3.45;1.10;;;20.60;87.30;;;;;;4967606;28;20058;-78
2023/07/18 08:41:27;;;;;;;5.28;1.58;;;20.70;86.20;;;;;;4963106;28;20026;-77
2023/07/18 08:43:55;;;;;;;2.88;1.52;;;20.90;87.40;;;;;;4967152;28;20089;-77
2023/07/18 08:46:22;;;;;;;7.60;2.00;;;21.00;86.40;;;;;;4955540;28;20027;-81
2023/07/18 08:48:48;;;;;;;4.07;1.33;;;21.20;85.00;;;;;;4967094;28;20518;-81
2023/07/18 08:51:14;;;;;;;3.47;2.03;;;21.10;85.60;;;;;;4964079;28;20031;-81
2023/07/18 08:53:40;;;;;;;5.75;1.40;;;21.20;85.20;;;;;;4963616;28;20019;-81
2023/07/18 08:56:10;;;;;;;2.22;1.30;;;21.00;83.90;;;;;;4964456;28;20023;-80
2023/07/18 08:58:39;;;;;;;4.13;1.30;;;21.00;85.50;;;;;;4956446;28;20473;-81
2023/07/18 09:01:05;;;;;;;5.10;1.38;;;21.20;82.80;;;;;;4962261;28;20022;-81
2023/07/18 09:03:33;;;;;;;3.17;1.50;;;21.30;82.80;;;;;;4965680;28;20030;-81
2023/07/18 09:06:18;;;;;;;6.63;1.67;;;21.50;81.30;;;;;;4966308;28;20037;-81
2023/07/18 09:08:44;;;;;;;5.05;1.30;;;21.60;82.30;;;;;;4963255;28;20022;-81
2023/07/18 09:11:12;;;;;;;9.65;1.67;;;21.90;80.50;;;;;;4964469;28;20034;-81
2023/07/18 09:13:39;;;;;;;6.25;1.60;;;22.30;80.50;;;;;;4956922;28;20014;-81
2023/07/18 09:16:19;;;;;;;3.92;1.85;;;22.60;79.00;;;;;;4958238;28;20661;-80
2023/07/18 09:18:52;;;;;;;4.53;1.15;;;23.00;77.70;;;;;;4977444;28;20563;-80
2023/07/18 09:21:18;;;;;;;;;;;23.00;77.00;;;;;;4962472;28;20019;-79
2023/07/18 09:23:45;;;;;;;1.90;1.45;;;22.90;76.30;;;;;;4964384;28;19933;-79
2023/07/18 09:26:13;;;;;;;10.15;1.55;;;23.10;76.80;;;;;;4955721;28;20100;-80
2023/07/18 09:28:40;;;;;;;5.90;1.73;;;23.40;75.80;;;;;;4966113;28;20555;-80
2023/07/18 09:31:23;;;;;;;7.82;1.50;;;23.70;73.90;;;;;;4961182;28;20022;-80
2023/07/18 09:33:54;;;;;;;2.47;1.13;;;24.00;73.20;;;;;;4964711;28;20605;-79
2023/07/18 09:36:21;;;;;;;4.93;1.40;;;24.30;68.50;;;;;;4966248;28;20030;-80
2023/07/18 09:38:48;;;;;;;3.17;1.30;;;24.20;70.20;;;;;;4953915;28;20430;-79
2023/07/18 09:41:18;;;;;;;2.35;1.20;;;24.00;70.20;;;;;;4965570;28;20027;-80
2023/07/18 09:43:44;;;;;;;2.67;1.45;;;24.00;71.10;;;;;;4965979;28;20037;-80
2023/07/18 09:46:12;;;;;;;3.38;1.20;;;24.50;72.30;;;;;;4958673;28;20030;-79
2023/07/18 09:48:43;;;;;;;3.58;1.20;;;24.70;69.40;;;;;;4964118;28;20027;-79
2023/07/18 09:51:13;;;;;;;5.32;1.40;;;24.90;66.20;;;;;;4965711;28;20023;-79
2023/07/18 09:53:42;;;;;;;1.75;0.90;;;24.80;67.70;;;;;;4964661;28;20092;-79
2023/07/18 09:56:08;;;;;;;2.17;1.17;;;25.00;64.40;;;;;;4956879;28;20015;-80
2023/07/18 09:58:41;;;;;;;4.80;1.15;;;25.00;64.80;;;;;;4962799;28;20045;-80
2023/07/18 10:01:14;;;;;;;3.15;1.10;;;25.30;64.40;;;;;;4963264;28;20065;-80
2023/07/18 10:03:40;;;;;;;3.72;1.40;;;25.70;63.60;;;;;;4968994;28;20130;-80
2023/07/18 10:06:11;;;;;;;2.15;1.10;;;25.50;65.70;;;;;;4965000;28;20134;-79
2023/07/18 10:08:39;;;;;;;1.30;1.20;;;25.20;63.40;;;;;;4963498;28;20031;-80
2023/07/18 10:11:08;;;;;;;4.28;1.63;;;24.70;63.80;;;;;;4963902;28;20439;-79
2023/07/18 10:13:59;;;;;;;1.48;1.20;;;24.20;65.80;;;;;;4963304;28;20059;-79
2023/07/18 10:16:27;;;;;;;16.08;8.20;;;24.30;66.80;;;;;;4960604;28;20395;-80
2023/07/18 10:18:52;;;;;;;1.15;1.05;;;24.60;65.70;;;;;;4961220;28;20033;-79
2023/07/18 10:21:28;;;;;;;24.95;11.05;;;24.80;64.00;;;;;;4952374;28;20134;-79
2023/07/18 10:23:54;;;;;;;13.50;5.85;;;25.20;63.70;;;;;;4963685;28;20113;-80
2023/07/18 10:26:30;;;;;;;2.05;1.73;;;25.10;63.80;;;;;;4962005;28;20046;-80
2023/07/18 10:29:02;;;;;;;1.80;1.20;;;25.10;66.10;;;;;;4963513;28;20406;-80
2023/07/18 10:31:38;;;;;;;4.75;1.20;;;25.20;64.30;;;;;;4970168;28;20526;-79
2023/07/18 10:34:22;;;;;;;4.43;1.10;;;25.40;62.50;;;;;;4955793;28;20356;-79
2023/07/18 10:37:04;;;;;;;1.98;1.20;;;25.20;61.80;;;;;;4967408;28;20513;-79
2023/07/18 10:39:43;;;;;;;1.08;0.98;;;25.30;62.10;;;;;;4961083;28;20589;-79
2023/07/18 10:42:20;;;;;;;2.63;1.27;;;25.40;60.20;;;;;;4962715;28;20061;-80
2023/07/18 10:44:56;;;;;;;4.30;1.10;;;25.10;61.80;;;;;;4960531;28;20035;-80
2023/07/18 10:47:22;;;;;;;3.53;1.13;;;25.00;62.20;;;;;;4961768;28;20027;-79
2023/07/18 10:49:48;;;;;;;3.80;1.38;;;25.00;62.40;;;;;;4961281;28;21068;-80
2023/07/18 10:52:15;;;;;;;3.00;1.20;;;25.00;62.20;;;;;;4960929;28;20034;-80
2023/07/18 10:54:45;;;;;;;3.15;1.00;;;25.20;61.10;;;;;;4963522;28;20031;-81
2023/07/18 10:57:11;;;;;;;1.58;1.10;;;25.50;60.30;;;;;;4961033;28;20080;-78
2023/07/18 10:59:41;;;;;;;2.15;1.00;;;25.90;58.20;;;;;;4963035;28;20582;-80
2023/07/18 11:02:07;;;;;;;2.03;1.05;;;26.20;58.50;;;;;;4961999;28;20037;-80
2023/07/18 11:04:33;;;;;;;3.88;1.27;;;26.10;57.90;;;;;;4959623;28;20035;-81
2023/07/18 11:06:59;;;;;;;1.50;1.30;;;26.60;57.50;;;;;;4957826;28;20027;-80
2023/07/18 11:09:25;;;;;;;1.30;1.20;;;26.90;56.80;;;;;;4957017;28;20274;-78
2023/07/18 11:11:53;;;;;;;2.35;1.30;;;26.80;57.90;;;;;;4969516;28;20023;-78
2023/07/18 11:14:18;;;;;;;1.48;1.00;;;26.00;56.40;;;;;;4957310;28;20026;-78
2023/07/18 11:16:45;;;;;;;1.00;0.90;;;25.80;57.70;;;;;;4955469;28;20034;-78
2023/07/18 11:19:11;;;;;;;4.65;1.05;;;25.80;57.70;;;;;;4958759;28;20062;-78
2023/07/18 11:21:39;;;;;;;3.28;1.20;;;25.70;58.10;;;;;;4957947;28;20054;-80
2023/07/18 11:24:05;;;;;;;2.80;1.00;;;25.80;58.30;;;;;;4957574;28;20049;-81
2023/07/18 11:26:33;;;;;;;4.68;1.27;;;25.80;57.40;;;;;;4957492;28;20553;-80
2023/07/18 11:29:00;;;;;;;6.53;0.95;;;26.00;56.90;;;;;;4958597;28;20019;-80
2023/07/18 11:31:40;;;;;;;2.65;0.98;;;25.80;56.60;;;;;;4955248;28;20070;-79
2023/07/18 11:34:05;;;;;;;3.60;1.13;;;25.70;57.10;;;;;;4973311;28;20346;-81
2023/07/18 11:36:32;;;;;;;4.18;1.27;;;25.60;57.00;;;;;;4956499;28;20327;-81
2023/07/18 11:39:01;;;;;;;7.70;1.30;;;26.00;58.20;;;;;;4956746;28;20030;-80
2023/07/18 11:41:34;;;;;;;1.23;1.08;;;25.90;56.80;;;;;;4956372;28;20019;-80
2023/07/18 11:44:04;;;;;;;3.08;1.00;;;26.20;56.80;;;;;;4957155;28;20110;-81
2023/07/18 11:46:43;;;;;;;2.58;1.00;;;26.50;55.30;;;;;;4972907;28;20054;-80
2023/07/18 11:49:12;;;;;;;2.08;1.00;;;27.00;55.50;;;;;;4953961;28;20034;-78
2023/07/18 11:51:40;;;;;;;1.27;1.17;;;26.90;55.00;;;;;;4956000;28;20019;-79
2023/07/18 11:54:06;;;;;;;2.78;1.08;;;26.90;54.90;;;;;;4956423;28;20329;-80
2023/07/18 11:56:34;;;;;;;2.30;1.10;;;27.00;55.20;;;;;;4955413;28;20031;-79
2023/07/18 11:59:00;;;;;;;2.53;1.02;;;27.40;55.60;;;;;;4956168;28;20046;-79
2023/07/18 12:01:25;;;;;;;2.55;1.15;;;27.20;54.30;;;;;;4956558;28;20169;-79
2023/07/18 12:03:52;;;;;;;3.28;1.08;;;27.30;55.30;;;;;;4960588;28;20044;-78
2023/07/18 12:06:23;;;;;;;3.67;1.20;;;27.20;54.80;;;;;;4962715;28;20506;-79
2023/07/18 12:08:49;;;;;;;1.40;1.20;;;26.90;54.60;;;;;;4968183;28;20030;-78
2023/07/18 12:11:15;;;;;;;0.80;0.80;;;27.20;54.20;;;;;;4966080;28;20107;-78
2023/07/18 12:13:41;;;;;;;1.23;0.80;;;27.50;55.40;;;;;;4967594;28;20058;-79
2023/07/18 12:16:07;;;;;;;3.75;1.17;;;27.50;49.60;;;;;;4967279;28;20466;-78
2023/07/18 12:18:33;;;;;;;1.58;0.95;;;27.60;50.10;;;;;;4967548;28;20033;-78
2023/07/18 12:20:59;;;;;;;1.45;1.10;;;27.70;49.40;;;;;;4967546;28;20023;-78
2023/07/18 12:23:25;;;;;;;3.40;1.23;;;27.70;50.20;;;;;;4965645;28;20038;-78
2023/07/18 12:25:51;;;;;;;1.85;1.10;;;27.70;51.50;;;;;;4964539;28;20404;-79
2023/07/18 12:28:19;;;;;;;2.78;1.23;;;27.80;51.40;;;;;;4965650;28;20037;-78
2023/07/18 12:30:45;;;;;;;1.25;1.02;;;27.40;51.70;;;;;;4962235;28;20026;-78
2023/07/18 12:33:10;;;;;;;2.00;1.10;;;27.00;53.20;;;;;;4966921;28;20029;-78
2023/07/18 12:35:36;;;;;;;3.53;1.20;;;27.10;53.60;;;;;;4964861;28;20026;-78
2023/07/18 12:38:03;;;;;;;1.75;1.15;;;27.20;52.90;;;;;;4965347;28;20060;-78
2023/07/18 12:40:33;;;;;;;2.90;1.30;;;27.40;51.80;;;;;;4967339;28;20376;-78
2023/07/18 12:43:02;;;;;;;1.63;1.52;;;27.70;52.30;;;;;;4967500;28;20019;-78
2023/07/18 12:45:28;;;;;;;7.18;1.60;;;28.00;51.80;;;;;;4966926;28;20027;-78